Time;durP1;ratioP1;P1;durP2;ratioP2;P2;SDS_P1;SDS_P2;PMS_P1;PMS_P2;Temp;Humidity;BMP_temperature;BMP_pressure;BME280_temperature;BME280_humidity;BME280_pressure;Samples;Min_cycle;Max_cycle;Signal;HPM_P1;HPM_P2
2021/07/27 00:01:22;;;;;;;1.67;1.52;;;;;;;-146.61;100.00;58846.50;6284618;22;20028;-84
2021/07/27 00:04:04;;;;;;;1.65;1.05;;;;;;;-146.61;100.00;58846.50;6258221;22;20024;-84
2021/07/27 00:06:36;;;;;;;1.50;1.40;;;;;;;-146.61;100.00;58846.50;6281913;22;20007;-82
2021/07/27 00:09:05;;;;;;;1.50;1.40;;;;;;;-146.61;100.00;58846.50;6277313;22;20132;-85
2021/07/27 00:11:34;;;;;;;1.20;1.10;;;;;;;-146.61;100.00;58846.50;6284960;22;20839;-84
2021/07/27 00:14:06;;;;;;;1.77;1.40;;;;;;;-146.61;100.00;58846.50;6284764;22;20353;-85
2021/07/27 00:16:49;;;;;;;1.08;1.08;;;;;;;-146.61;100.00;58846.50;6282561;22;20038;-85
2021/07/27 00:19:27;;;;;;;1.95;1.15;;;;;;;-146.61;100.00;58846.50;6281936;22;20039;-84
2021/07/27 00:24:44;;;;;;;1.55;1.45;;;;;;;-146.61;100.00;58846.50;6280404;22;20035;-86
2021/07/27 00:27:23;;;;;;;1.23;1.23;;;;;;;-146.61;100.00;58846.50;6280864;22;20237;-85
2021/07/27 00:29:57;;;;;;;1.55;1.45;;;;;;;-146.61;100.00;58846.50;6310801;22;20051;-85
2021/07/27 00:32:27;;;;;;;2.38;1.70;;;;;;;-146.61;100.00;58846.50;6278347;22;20163;-83
2021/07/27 00:35:04;;;;;;;1.50;1.50;;;;;;;-146.61;100.00;58846.50;6285652;22;20027;-82
2021/07/27 00:37:35;;;;;;;1.50;1.40;;;;;;;-146.61;100.00;58846.50;6284471;22;20016;-83
2021/07/27 00:40:09;;;;;;;1.85;1.67;;;;;;;-146.61;100.00;58846.50;6286260;22;20124;-85
2021/07/27 00:42:45;;;;;;;1.50;1.40;;;;;;;-146.61;100.00;58846.50;6312066;22;20020;-82
2021/07/27 00:45:30;;;;;;;3.60;1.70;;;;;;;-146.61;100.00;58846.50;6279807;22;20023;-83
2021/07/27 00:48:04;;;;;;;2.70;1.88;;;;;;;-146.61;100.00;58846.50;6285213;22;20079;-80
2021/07/27 00:50:36;;;;;;;1.67;1.42;;;;;;;-146.61;100.00;58846.50;6280004;22;20034;-82
2021/07/27 00:53:05;;;;;;;1.55;1.45;;;;;;;-146.61;100.00;58846.50;6284106;22;20023;-83
2021/07/27 00:55:51;;;;;;;1.70;1.60;;;;;;;-146.61;100.00;58846.50;6308708;22;20432;-84
2021/07/27 00:58:34;;;;;;;2.25;2.03;;;;;;;-146.61;100.00;58846.50;6284603;22;20027;-82
2021/07/27 01:01:08;;;;;;;4.72;2.40;;;;;;;-146.61;100.00;58846.50;6280995;22;20111;-82
2021/07/27 01:03:52;;;;;;;2.90;1.60;;;;;;;-146.61;100.00;58846.50;6284818;22;20027;-87
2021/07/27 01:06:21;;;;;;;1.92;1.83;;;;;;;-146.61;100.00;58846.50;6262570;22;20012;-83
2021/07/27 01:08:55;;;;;;;3.45;3.03;;;;;;;-146.61;100.00;58846.50;6278045;22;20020;-85
2021/07/27 01:11:29;;;;;;;1.42;1.42;;;;;;;-146.61;100.00;58846.50;6280574;22;20021;-85
2021/07/27 01:17:13;;;;;;;2.10;2.00;;;;;;;-146.61;100.00;58846.50;6277983;22;20047;-82
2021/07/27 01:19:51;;;;;;;2.72;2.53;;;;;;;-146.61;100.00;58846.50;6255367;22;20530;-83
2021/07/27 01:39:33;;;;;;;2.10;2.00;;;;;;;-146.61;100.00;58846.50;6286090;22;20030;-84
2021/07/27 01:42:13;;;;;;;2.00;1.67;;;;;;;-146.61;100.00;58846.50;6286738;22;20023;-83
2021/07/27 01:44:59;;;;;;;;;;;;;;;;;;;;;
2021/07/27 01:47:36;;;;;;;1.88;1.77;;;;;;;-146.61;100.00;58846.50;6243852;22;20019;-86
2021/07/27 01:50:09;;;;;;;2.42;2.33;;;;;;;-146.61;100.00;58846.50;6282193;22;20030;-83
2021/07/27 01:53:04;;;;;;;;;;;;;;;;;;;;;
2021/07/27 01:55:40;;;;;;;1.90;1.80;;;;;;;-146.61;100.00;58846.50;6282628;22;20010;-81
2021/07/27 01:58:09;;;;;;;2.22;2.08;;;;;;;-146.61;100.00;58846.50;6288875;22;20012;-82
2021/07/27 02:00:55;;;;;;;2.15;2.05;;;;;;;-146.61;100.00;58846.50;6308068;22;20034;-82
2021/07/27 02:03:31;;;;;;;4.00;2.25;;;;;;;-146.61;100.00;58846.50;6290134;22;20026;-82
2021/07/27 02:06:18;;;;;;;2.67;2.45;;;;;;;-146.61;100.00;58846.50;6159862;22;20025;-93
2021/07/27 02:08:49;;;;;;;1.58;1.48;;;;;;;-146.61;100.00;58846.50;6095533;23;20096;-93
2021/07/27 02:14:04;;;;;;;1.65;1.55;;;;;;;-146.61;100.00;58846.50;6276472;22;20093;-95
2021/07/27 02:16:31;;;;;;;2.53;1.60;;;;;;;-146.61;100.00;58846.50;6259650;22;20106;-93
2021/07/27 02:18:59;;;;;;;1.90;1.80;;;;;;;-146.61;100.00;58846.50;6270305;22;20046;-94
2021/07/27 02:21:29;;;;;;;2.03;1.55;;;;;;;-146.61;100.00;58846.50;6243268;22;20296;-93
2021/07/27 02:24:02;;;;;;;1.95;1.85;;;;;;;-146.61;100.00;58846.50;6293514;22;20023;-93
2021/07/27 02:26:33;;;;;;;2.97;1.80;;;;;;;-146.61;100.00;58846.50;6242411;22;20058;-95
2021/07/27 02:29:00;;;;;;;2.08;1.95;;;;;;;-146.61;100.00;58846.50;6296960;22;20019;-93
2021/07/27 02:31:32;;;;;;;2.42;1.70;;;;;;;-146.61;100.00;58846.50;6242564;22;20046;-94
2021/07/27 02:34:05;;;;;;;2.28;2.10;;;;;;;-146.61;100.00;58846.50;6268928;22;20023;-95
2021/07/27 02:36:33;;;;;;;2.08;1.73;;;;;;;-146.61;100.00;58846.50;6295031;22;20076;-92
2021/07/27 02:39:07;;;;;;;1.95;1.63;;;;;;;-146.61;100.00;58846.50;6269767;22;20054;-95
2021/07/27 02:41:37;;;;;;;1.63;1.52;;;;;;;-146.61;100.00;58846.50;6216102;22;20038;-93
2021/07/27 02:44:04;;;;;;;2.95;1.55;;;;;;;-146.61;100.00;58846.50;6308774;22;20023;-93
2021/07/27 02:46:33;;;;;;;2.40;2.20;;;;;;;-146.61;100.00;58846.50;6303124;22;20078;-92
2021/07/27 02:49:04;;;;;;;2.40;2.20;;;;;;;-146.61;100.00;58846.50;6289853;22;20023;-93
2021/07/27 02:51:31;;;;;;;2.65;2.08;;;;;;;-146.61;100.00;58846.50;6276837;22;20073;-93
2021/07/27 02:54:01;;;;;;;1.85;1.67;;;;;;;-146.61;100.00;58846.50;6310757;22;20010;-91
2021/07/27 02:56:29;;;;;;;2.13;1.63;;;;;;;-146.61;100.00;58846.50;6291567;22;20054;-89
2021/07/27 02:59:01;;;;;;;2.33;1.85;;;;;;;-146.61;100.00;58846.50;6289847;22;20200;-90
2021/07/27 03:01:29;;;;;;;1.90;1.80;;;;;;;-146.61;100.00;58846.50;6291258;22;20023;-91
2021/07/27 03:04:00;;;;;;;2.80;2.22;;;;;;;-146.61;100.00;58846.50;6292797;22;20258;-93
2021/07/27 03:06:36;;;;;;;1.70;1.60;;;;;;;-146.61;100.00;58846.50;6260097;22;20370;-91
2021/07/27 03:09:16;;;;;;;5.28;2.10;;;;;;;-146.61;100.00;58846.50;6287637;22;20003;-91
2021/07/27 03:11:47;;;;;;;1.88;1.77;;;;;;;-146.61;100.00;58846.50;6286773;22;20047;-92
2021/07/27 03:14:18;;;;;;;1.80;1.70;;;;;;;-146.61;100.00;58846.50;6259047;22;20023;-92
2021/07/27 03:16:48;;;;;;;2.75;2.22;;;;;;;-146.61;100.00;58846.50;6267767;22;20054;-93
2021/07/27 03:19:15;;;;;;;3.00;1.88;;;;;;;-146.61;100.00;58846.50;6243256;22;20016;-91
2021/07/27 03:21:43;;;;;;;3.22;2.50;;;;;;;-146.61;100.00;58846.50;6242899;22;20431;-93
2021/07/27 03:24:10;;;;;;;3.35;2.28;;;;;;;-146.61;100.00;58846.50;6269939;22;20156;-92
2021/07/27 03:26:38;;;;;;;6.85;2.50;;;;;;;-146.61;100.00;58846.50;6284198;22;20083;-92
2021/07/27 03:29:11;;;;;;;3.33;2.58;;;;;;;-146.61;100.00;58846.50;6287008;22;20034;-91
2021/07/27 03:31:41;;;;;;;3.00;1.77;;;;;;;-146.61;100.00;58846.50;6258926;22;20088;-92
2021/07/27 03:34:16;;;;;;;4.53;2.65;;;;;;;-146.61;100.00;58846.50;6267261;22;20019;-94
2021/07/27 03:36:47;;;;;;;4.57;2.75;;;;;;;-146.61;100.00;58846.50;6266607;22;20090;-93
2021/07/27 03:39:20;;;;;;;3.80;2.75;;;;;;;-146.61;100.00;58846.50;6241688;22;20020;-93
2021/07/27 03:41:48;;;;;;;3.03;2.40;;;;;;;-146.61;100.00;58846.50;6252045;22;20540;-93
2021/07/27 03:44:27;;;;;;;2.60;2.40;;;;;;;-146.61;100.00;58846.50;6269431;22;20019;-93
2021/07/27 03:49:56;;;;;;;2.78;2.47;;;;;;;-146.61;100.00;58846.50;6281648;22;20015;-93
2021/07/27 03:52:38;;;;;;;7.25;3.00;;;;;;;-146.61;100.00;58846.50;6277429;22;20107;-92
2021/07/27 03:55:17;;;;;;;3.42;3.13;;;;;;;-146.61;100.00;58846.50;6266184;22;20031;-93
2021/07/27 03:57:51;;;;;;;3.97;2.67;;;;;;;-146.61;100.00;58846.50;6264209;22;20016;-94
2021/07/27 04:00:20;;;;;;;2.38;2.28;;;;;;;-146.61;100.00;58846.50;6269374;22;20620;-94
2021/07/27 04:02:47;;;;;;;4.07;3.17;;;;;;;-146.61;100.00;58846.50;6268555;22;20023;-95
2021/07/27 04:05:23;;;;;;;4.30;2.78;;;;;;;-146.61;100.00;58846.50;6279929;22;20442;-96
2021/07/27 04:20:06;;;;;;;3.53;2.50;;;;;;;-146.61;100.00;58846.50;6305537;22;20038;-95
2021/07/27 04:22:35;;;;;;;3.25;2.95;;;;;;;-146.61;100.00;58846.50;6270833;22;20045;-95
2021/07/27 04:25:08;;;;;;;3.92;3.53;;;;;;;-146.61;100.00;58846.50;6277226;22;20027;-94
2021/07/27 04:27:39;;;;;;;4.15;2.95;;;;;;;-146.61;100.00;58846.50;6275003;22;20019;-93
2021/07/27 04:36:13;;;;;;;3.13;2.67;;;;;;;-146.61;100.00;58846.50;6277777;22;20127;-93
2021/07/27 04:38:46;;;;;;;4.68;3.90;;;;;;;-146.61;100.00;58846.50;6269272;22;20015;-92
2021/07/27 04:41:15;;;;;;;4.57;3.47;;;;;;;-146.61;100.00;58846.50;6239887;22;20632;-92
2021/07/27 04:43:48;;;;;;;4.35;3.28;;;;;;;-146.61;100.00;58846.50;6243931;22;20736;-93
2021/07/27 04:46:15;;;;;;;6.28;4.10;;;;;;;-146.61;100.00;58846.50;6222124;22;20043;-93
2021/07/27 04:48:50;;;;;;;6.90;4.00;;;;;;;-146.61;100.00;58846.50;6234028;22;20019;-93
2021/07/27 04:51:20;;;;;;;3.65;3.30;;;;;;;-146.61;100.00;58846.50;6268418;22;20026;-92
2021/07/27 04:53:49;;;;;;;6.40;3.42;;;;;;;-146.61;100.00;58846.50;6267908;22;20019;-91
2021/07/27 04:56:17;;;;;;;4.20;3.40;;;;;;;-146.61;100.00;58846.50;6298171;22;20074;-93
2021/07/27 04:58:48;;;;;;;3.67;3.38;;;;;;;-146.61;100.00;58846.50;6269624;22;20065;-92
2021/07/27 05:01:15;;;;;;;4.38;3.80;;;;;;;-146.61;100.00;58846.50;6289971;22;20023;-92
2021/07/27 05:03:44;;;;;;;6.03;3.65;;;;;;;-146.61;100.00;58846.50;6266766;22;20073;-92
2021/07/27 05:09:08;;;;;;;4.22;3.58;;;;;;;-146.61;100.00;58846.50;6273148;22;20023;-92
2021/07/27 05:11:37;;;;;;;4.75;3.70;;;;;;;-146.61;100.00;58846.50;6250414;22;20072;-93
2021/07/27 05:14:07;;;;;;;5.50;3.42;;;;;;;-146.61;100.00;58846.50;6278193;22;20025;-91
2021/07/27 05:16:34;;;;;;;5.45;4.07;;;;;;;-146.61;100.00;58846.50;6302935;22;20015;-92
2021/07/27 05:19:04;;;;;;;4.53;3.80;;;;;;;-146.61;100.00;58846.50;6287337;22;20003;-92
2021/07/27 05:21:33;;;;;;;3.78;3.47;;;;;;;-146.61;100.00;58846.50;6302897;22;20023;-91
2021/07/27 05:24:00;;;;;;;4.25;3.55;;;;;;;-146.61;100.00;58846.50;6278540;22;20023;-93
2021/07/27 05:26:37;;;;;;;4.60;3.75;;;;;;;-146.61;100.00;58846.50;6278165;22;20072;-93
2021/07/27 05:29:16;;;;;;;4.75;3.80;;;;;;;-146.61;100.00;58846.50;6248615;22;20051;-93
2021/07/27 05:35:04;;;;;;;8.02;4.28;;;;;;;-146.61;100.00;58846.50;6312786;22;20022;-93
2021/07/27 05:37:38;;;;;;;4.18;3.80;;;;;;;-146.61;100.00;58846.50;6309804;22;20030;-93
2021/07/27 05:40:06;;;;;;;6.25;3.75;;;;;;;-146.61;100.00;58846.50;6289055;22;20458;-92
2021/07/27 05:42:34;;;;;;;3.97;3.63;;;;;;;-146.61;100.00;58846.50;6319417;22;20023;-93
2021/07/27 05:45:04;;;;;;;4.72;4.15;;;;;;;-146.61;100.00;58846.50;6249466;22;20025;-84
2021/07/27 05:47:45;;;;;;;8.48;5.00;;;;;;;-146.61;100.00;58846.50;6116502;22;20026;-85
2021/07/27 05:50:16;;;;;;;6.88;4.40;;;;;;;-146.61;100.00;58846.50;6154652;23;20017;-84
2021/07/27 05:52:48;;;;;;;4.82;4.43;;;;;;;-146.61;100.00;58846.50;6154711;23;20044;-84
2021/07/27 05:55:23;;;;;;;10.18;5.80;;;;;;;-146.61;100.00;58846.50;6129938;22;20036;-85
2021/07/27 05:57:50;;;;;;;5.95;5.45;;;;;;;-146.61;100.00;58846.50;6151828;22;20025;-83
2021/07/27 06:00:20;;;;;;;6.55;4.47;;;;;;;-146.61;100.00;58846.50;6153266;22;20097;-87
2021/07/27 06:02:47;;;;;;;8.00;5.68;;;;;;;-146.61;100.00;58846.50;6122627;22;20028;-86
2021/07/27 06:05:22;;;;;;;7.72;6.25;;;;;;;-146.61;100.00;58846.50;6148210;23;20017;-82
2021/07/27 06:07:58;;;;;;;11.05;9.35;;;;;;;-146.61;100.00;58846.50;6148449;23;20050;-83
2021/07/27 06:10:24;;;;;;;9.05;7.85;;;;;;;-146.61;100.00;58846.50;6122058;23;20080;-83
2021/07/27 06:12:53;;;;;;;8.63;6.38;;;;;;;-146.61;100.00;58846.50;6160456;22;20015;-88
2021/07/27 06:15:25;;;;;;;8.18;6.70;;;;;;;-146.61;100.00;58846.50;6289722;22;20459;-88
2021/07/27 06:18:03;;;;;;;8.48;6.35;;;;;;;-146.61;100.00;58846.50;6276206;22;20023;-87
2021/07/27 06:20:30;;;;;;;10.55;8.68;;;;;;;-146.61;100.00;58846.50;6274865;22;20045;-85
2021/07/27 06:22:56;;;;;;;10.15;8.27;;;;;;;-146.61;100.00;58846.50;6279521;22;20096;-85
2021/07/27 06:25:40;;;;;;;11.93;8.85;;;;;;;-146.61;100.00;58846.50;6277504;22;20207;-85
2021/07/27 06:28:07;;;;;;;7.95;7.15;;;;;;;-146.61;100.00;58846.50;6279806;22;20351;-87
2021/07/27 06:30:38;;;;;;;9.10;6.60;;;;;;;-146.61;100.00;58846.50;6305793;22;20027;-85
2021/07/27 06:33:13;;;;;;;6.25;5.55;;;;;;;-146.61;100.00;58846.50;6278753;22;20035;-88
2021/07/27 06:35:45;;;;;;;6.85;5.88;;;;;;;-146.61;100.00;58846.50;6281340;22;20636;-82
2021/07/27 06:38:17;;;;;;;9.48;7.45;;;;;;;-146.61;100.00;58846.50;6279612;22;20232;-86
2021/07/27 06:40:46;;;;;;;9.55;7.82;;;;;;;-146.61;100.00;58846.50;6311410;22;20072;-86
2021/07/27 06:43:25;;;;;;;8.18;7.38;;;;;;;-146.61;100.00;58846.50;6277104;22;20022;-84
2021/07/27 06:46:01;;;;;;;10.75;8.45;;;;;;;-146.61;100.00;58846.50;6301994;22;20019;-83
2021/07/27 06:48:27;;;;;;;8.88;8.07;;;;;;;-146.61;100.00;58846.50;6279771;22;20015;-84
2021/07/27 06:50:59;;;;;;;8.77;7.97;;;;;;;-146.61;100.00;58846.50;6276073;22;20098;-85
2021/07/27 06:53:27;;;;;;;8.23;7.32;;;;;;;-146.61;100.00;58846.50;6275048;22;20019;-88
2021/07/27 06:55:56;;;;;;;7.95;6.53;;;;;;;-146.61;100.00;58846.50;6272922;22;20050;-85
2021/07/27 06:58:25;;;;;;;8.68;7.88;;;;;;;-146.61;100.00;58846.50;6276032;22;20029;-84
2021/07/27 07:00:52;;;;;;;7.65;6.65;;;;;;;-146.61;100.00;58846.50;6273580;22;20046;-88
2021/07/27 07:03:19;;;;;;;9.27;7.28;;;;;;;-146.61;100.00;58846.50;6277334;22;20099;-88
2021/07/27 07:05:47;;;;;;;7.07;6.38;;;;;;;-146.61;100.00;58846.50;6282203;22;20050;-84
2021/07/27 07:08:20;;;;;;;6.72;6.05;;;;;;;-146.61;100.00;58846.50;6250623;22;20019;-83
2021/07/27 07:10:50;;;;;;;7.57;6.88;;;;;;;-146.61;100.00;58846.50;6277836;22;20126;-84
2021/07/27 07:13:21;;;;;;;6.93;6.07;;;;;;;-146.61;100.00;58846.50;6271123;22;20031;-85
2021/07/27 07:15:53;;;;;;;6.85;6.25;;;;;;;-146.61;100.00;58846.50;6299815;22;20503;-88
2021/07/27 07:18:20;;;;;;;6.97;5.95;;;;;;;-146.61;100.00;58846.50;6278209;22;20027;-86
2021/07/27 07:20:53;;;;;;;6.68;5.93;;;;;;;-146.61;100.00;58846.50;6272055;22;20042;-85
2021/07/27 07:23:25;;;;;;;6.13;5.60;;;;;;;-146.61;100.00;58846.50;6279266;22;20019;-87
2021/07/27 07:25:59;;;;;;;6.95;6.03;;;;;;;-146.61;100.00;58846.50;6275803;22;20023;-85
2021/07/27 07:28:45;;;;;;;7.03;6.47;;;;;;;-146.61;100.00;58846.50;6287103;22;20019;-84
2021/07/27 07:31:20;;;;;;;7.10;6.40;;;;;;;-146.61;100.00;58846.50;6284014;22;20031;-85
2021/07/27 07:34:36;;;;;;;7.40;6.75;;;;;;;-146.61;100.00;58846.50;6285524;22;20575;-82
2021/07/27 07:37:08;;;;;;;6.57;6.07;;;;;;;-146.61;100.00;58846.50;6245674;22;20197;-83
2021/07/27 07:39:39;;;;;;;8.15;7.35;;;;;;;-146.61;100.00;58846.50;6289512;22;20027;-83
2021/07/27 07:42:23;;;;;;;7.53;6.78;;;;;;;-146.61;100.00;58846.50;6285165;22;20041;-88
2021/07/27 07:44:53;;;;;;;7.50;6.22;;;;;;;-146.61;100.00;58846.50;6285203;22;20118;-87
2021/07/27 07:47:22;;;;;;;6.88;6.28;;;;;;;-146.61;100.00;58846.50;6281209;22;20023;-88
2021/07/27 07:49:49;;;;;;;7.88;7.10;;;;;;;-146.61;100.00;58846.50;6263853;22;20424;-84
2021/07/27 07:52:16;;;;;;;7.72;7.03;;;;;;;-146.61;100.00;58846.50;6270369;22;20326;-86
2021/07/27 07:54:42;;;;;;;8.23;6.93;;;;;;;-146.61;100.00;58846.50;6294783;22;20050;-86
2021/07/27 07:57:14;;;;;;;8.52;7.70;;;;;;;-146.61;100.00;58846.50;6268123;22;20023;-85
2021/07/27 07:59:58;;;;;;;8.57;6.90;;;;;;;-146.61;100.00;58846.50;6271294;22;20500;-85
2021/07/27 08:02:25;;;;;;;7.65;6.88;;;;;;;-146.61;100.00;58846.50;6298152;22;20037;-83
2021/07/27 08:04:51;;;;;;;7.00;6.40;;;;;;;-146.61;100.00;58846.50;6270082;22;20030;-88
2021/07/27 08:07:27;;;;;;;6.63;6.10;;;;;;;-146.61;100.00;58846.50;6267439;22;20272;-86
2021/07/27 08:09:53;;;;;;;7.82;7.13;;;;;;;-146.61;100.00;58846.50;6299052;22;20015;-88
2021/07/27 08:12:20;;;;;;;7.40;6.70;;;;;;;-146.61;100.00;58846.50;6268047;22;20023;-89
2021/07/27 08:14:53;;;;;;;8.57;6.90;;;;;;;-146.61;100.00;58846.50;6264805;22;20035;-88
2021/07/27 08:17:20;;;;;;;7.00;5.95;;;;;;;-146.61;100.00;58846.50;6269040;22;20519;-85
2021/07/27 08:19:49;;;;;;;6.70;6.05;;;;;;;-146.61;100.00;58846.50;6263974;22;20019;-88
2021/07/27 08:22:15;;;;;;;6.60;6.00;;;;;;;-146.61;100.00;58846.50;6268656;22;20035;-84
2021/07/27 08:24:42;;;;;;;8.30;6.28;;;;;;;-146.61;100.00;58846.50;6263776;22;20024;-88
2021/07/27 08:27:09;;;;;;;7.53;6.85;;;;;;;-146.61;100.00;58846.50;6262997;22;20038;-86
2021/07/27 08:29:43;;;;;;;7.70;6.95;;;;;;;-146.61;100.00;58846.50;6266843;22;20016;-89
2021/07/27 08:32:11;;;;;;;8.05;7.20;;;;;;;-146.61;100.00;58846.50;6262687;22;20102;-85
2021/07/27 08:34:42;;;;;;;7.97;7.18;;;;;;;-146.61;100.00;58846.50;6264233;22;20045;-87
2021/07/27 08:37:09;;;;;;;7.32;6.72;;;;;;;-146.61;100.00;58846.50;6263377;22;20364;-83
2021/07/27 08:39:36;;;;;;;11.48;8.57;;;;;;;-146.61;100.00;58846.50;6266282;22;20098;-87
2021/07/27 08:42:06;;;;;;;9.40;8.50;;;;;;;-146.61;100.00;58846.50;6267869;22;20451;-82
2021/07/27 08:44:35;;;;;;;9.20;8.13;;;;;;;-146.61;100.00;58846.50;6272332;22;20031;-82
2021/07/27 08:47:10;;;;;;;9.57;8.30;;;;;;;-146.61;100.00;58846.50;6264571;22;20042;-90
2021/07/27 08:49:36;;;;;;;8.32;7.53;;;;;;;-146.61;100.00;58846.50;6268492;22;20115;-84
2021/07/27 08:52:04;;;;;;;8.80;7.57;;;;;;;-146.61;100.00;58846.50;6266175;22;20123;-83
2021/07/27 08:54:33;;;;;;;6.97;6.38;;;;;;;-146.61;100.00;58846.50;6266892;22;20530;-87
2021/07/27 08:57:10;;;;;;;8.75;7.75;;;;;;;-146.61;100.00;58846.50;6268296;22;20029;-85
2021/07/27 08:59:39;;;;;;;8.27;7.47;;;;;;;-146.61;100.00;58846.50;6269526;22;20015;-88
2021/07/27 09:02:15;;;;;;;9.93;7.88;;;;;;;-146.61;100.00;58846.50;6276773;22;20042;-82
2021/07/27 09:04:48;;;;;;;8.77;7.85;;;;;;;-146.61;100.00;58846.50;6278599;22;20499;-89
2021/07/27 09:07:25;;;;;;;9.57;8.63;;;;;;;-146.61;100.00;58846.50;6273870;22;20098;-85
2021/07/27 09:09:56;;;;;;;9.35;7.55;;;;;;;-146.61;100.00;58846.50;6279663;22;19999;-86
2021/07/27 09:12:25;;;;;;;7.95;7.25;;;;;;;-146.61;100.00;58846.50;6273901;22;20079;-85
2021/07/27 09:15:05;;;;;;;10.93;7.95;;;;;;;-146.61;100.00;58846.50;6276856;22;20344;-89
2021/07/27 09:17:35;;;;;;;8.50;7.20;;;;;;;-146.61;100.00;58846.50;6273598;22;20513;-84
2021/07/27 09:22:45;;;;;;;7.45;6.78;;;;;;;-146.61;100.00;58846.50;6267007;22;20401;-86
2021/07/27 09:25:14;;;;;;;8.52;6.22;;;;;;;-146.61;100.00;58846.50;6270814;22;20213;-91
2021/07/27 09:27:41;;;;;;;9.13;6.28;;;;;;;-146.61;100.00;58846.50;6268564;22;20470;-84
2021/07/27 09:30:11;;;;;;;6.93;6.28;;;;;;;-146.61;100.00;58846.50;6264208;22;20401;-86
2021/07/27 09:32:50;;;;;;;5.85;5.35;;;;;;;-146.61;100.00;58846.50;6292814;22;20471;-87
2021/07/27 09:35:22;;;;;;;5.45;5.00;;;;;;;-146.61;100.00;58846.50;6265810;22;20035;-90
2021/07/27 09:38:22;;;;;;;6.35;5.70;;;;;;;-146.61;100.00;58846.50;6270255;22;20764;-83
2021/07/27 09:41:14;;;;;;;9.57;5.88;;;;;;;-146.61;100.00;58846.50;6266662;22;20039;-85
2021/07/27 09:43:45;;;;;;;6.43;5.72;;;;;;;-146.61;100.00;58846.50;6276040;22;20030;-87
2021/07/27 09:46:13;;;;;;;7.53;6.30;;;;;;;-146.61;100.00;58846.50;6275560;22;20023;-84
2021/07/27 09:48:46;;;;;;;6.47;5.05;;;;;;;-146.61;100.00;58846.50;6282047;22;20020;-84
2021/07/27 09:51:18;;;;;;;8.68;7.05;;;;;;;-146.61;100.00;58846.50;6280840;22;20027;-86
2021/07/27 09:53:57;;;;;;;7.18;6.47;;;;;;;-146.61;100.00;58846.50;6274745;22;20173;-84
2021/07/27 09:56:23;;;;;;;8.15;5.97;;;;;;;-146.61;100.00;58846.50;6273959;22;20073;-86
2021/07/27 09:58:51;;;;;;;7.75;7.10;;;;;;;-146.61;100.00;58846.50;6270143;22;20019;-83
2021/07/27 10:01:25;;;;;;;7.43;6.55;;;;;;;-146.61;100.00;58846.50;6253752;22;20347;-88
2021/07/27 10:03:55;;;;;;;7.85;7.03;;;;;;;-146.61;100.00;58846.50;6267485;22;20024;-87
2021/07/27 10:06:33;;;;;;;6.35;5.40;;;;;;;-146.61;100.00;58846.50;6268350;22;20023;-88
2021/07/27 10:09:11;;;;;;;7.13;6.55;;;;;;;-146.61;100.00;58846.50;6275076;22;20518;-85
2021/07/27 10:11:52;;;;;;;6.13;5.28;;;;;;;-146.61;100.00;58846.50;6272379;22;20119;-89
2021/07/27 10:14:25;;;;;;;5.38;4.93;;;;;;;-146.61;100.00;58846.50;6277072;22;20031;-83
2021/07/27 10:17:05;;;;;;;7.03;5.93;;;;;;;-146.61;100.00;58846.50;6272839;22;20031;-89
2021/07/27 10:20:07;;;;;;;6.82;5.70;;;;;;;-146.61;100.00;58846.50;6277395;22;20026;-86
2021/07/27 10:22:37;;;;;;;6.75;6.15;;;;;;;-146.61;100.00;58846.50;6272081;22;20023;-82
2021/07/27 10:25:12;;;;;;;7.38;6.68;;;;;;;-146.61;100.00;58846.50;6274300;22;20441;-84
2021/07/27 10:27:52;;;;;;;6.13;5.63;;;;;;;-146.61;100.00;58846.50;6277387;22;20072;-84
2021/07/27 10:30:34;;;;;;;10.27;7.57;;;;;;;-146.61;100.00;58846.50;6278955;22;20019;-82
2021/07/27 10:33:04;;;;;;;7.80;7.00;;;;;;;-146.61;100.00;58846.50;6278078;22;20050;-83
2021/07/27 10:35:42;;;;;;;7.22;6.53;;;;;;;-146.61;100.00;58846.50;6275437;22;20058;-87
2021/07/27 10:38:15;;;;;;;7.28;6.57;;;;;;;-146.61;100.00;58846.50;6280939;22;20031;-84
2021/07/27 10:40:44;;;;;;;7.53;6.82;;;;;;;-146.61;100.00;58846.50;6274095;22;20248;-89
2021/07/27 10:43:26;;;;;;;7.18;6.57;;;;;;;-146.61;100.00;58846.50;6281514;22;20084;-87
2021/07/27 10:46:02;;;;;;;7.17;6.53;;;;;;;-146.61;100.00;58846.50;6248403;22;20058;-86
2021/07/27 10:48:35;;;;;;;8.10;7.30;;;;;;;-146.61;100.00;58846.50;6269547;22;20031;-88
2021/07/27 10:51:05;;;;;;;8.15;7.07;;;;;;;-146.61;100.00;58846.50;6272789;22;20020;-84
2021/07/27 10:53:33;;;;;;;7.82;6.57;;;;;;;-146.61;100.00;58846.50;6276775;22;20024;-85
2021/07/27 10:56:08;;;;;;;9.48;8.57;;;;;;;-146.61;100.00;58846.50;6272882;22;20023;-85
2021/07/27 10:58:38;;;;;;;9.00;6.70;;;;;;;-146.61;100.00;58846.50;6272767;22;20034;-84
2021/07/27 11:01:17;;;;;;;6.70;6.13;;;;;;;-146.61;100.00;58846.50;6264234;22;20030;-84
2021/07/27 11:03:44;;;;;;;7.22;6.53;;;;;;;-146.61;100.00;58846.50;6280420;22;20024;-82
2021/07/27 11:09:03;;;;;;;7.13;6.50;;;;;;;-146.61;100.00;58846.50;6272895;22;20081;-85
2021/07/27 11:11:30;;;;;;;7.30;6.57;;;;;;;-146.61;100.00;58846.50;6273361;22;20111;-89
2021/07/27 11:13:59;;;;;;;6.78;6.18;;;;;;;-146.61;100.00;58846.50;6271623;22;20402;-90
2021/07/27 11:16:42;;;;;;;7.45;6.80;;;;;;;-146.61;100.00;58846.50;6280327;22;20057;-84
2021/07/27 11:19:48;;;;;;;6.75;6.15;;;;;;;-146.61;100.00;58846.50;6282214;22;20003;-88
2021/07/27 11:22:41;;;;;;;10.20;7.43;;;;;;;-146.61;100.00;58846.50;6275812;22;20012;-84
2021/07/27 11:25:22;;;;;;;7.45;6.80;;;;;;;-146.61;100.00;58846.50;6288012;22;20008;-84
2021/07/27 11:28:21;;;;;;;7.47;6.78;;;;;;;-146.61;100.00;58846.50;6287200;22;20020;-85
2021/07/27 11:30:54;;;;;;;7.07;6.38;;;;;;;-146.61;100.00;58846.50;6287917;22;20034;-85
2021/07/27 11:33:22;;;;;;;7.40;6.70;;;;;;;-146.61;100.00;58846.50;6277243;22;20027;-86
2021/07/27 11:35:55;;;;;;;7.55;6.85;;;;;;;-146.61;100.00;58846.50;6276429;22;20043;-91
2021/07/27 11:38:24;;;;;;;;;;;;;;;-146.61;100.00;58846.50;6275199;22;20019;-82
2021/07/27 11:41:04;;;;;;;7.78;6.97;;;;;;;-146.61;100.00;58846.50;6276480;22;20013;-85
2021/07/27 11:43:35;;;;;;;6.85;6.25;;;;;;;-146.61;100.00;58846.50;6281988;22;20027;-83
2021/07/27 11:46:16;;;;;;;7.00;6.40;;;;;;;-146.61;100.00;58846.50;6272847;22;20027;-83
2021/07/27 11:49:02;;;;;;;6.28;5.78;;;;;;;-146.61;100.00;58846.50;6257249;22;20105;-85
2021/07/27 11:51:42;;;;;;;7.25;6.65;;;;;;;-146.61;100.00;58846.50;6283627;22;20006;-85
2021/07/27 11:54:44;;;;;;;8.55;6.63;;;;;;;-146.61;100.00;58846.50;6285891;22;20016;-82
2021/07/27 12:03:42;;;;;;;9.30;7.00;;;;;;;-146.61;100.00;58846.50;6060805;23;20027;-86
2021/07/27 12:06:27;;;;;;;7.22;6.63;;;;;;;-146.61;100.00;58846.50;6130019;23;20010;-84
2021/07/27 12:09:22;;;;;;;7.40;6.80;;;;;;;-146.61;100.00;58846.50;6135767;22;20017;-85
2021/07/27 12:12:18;;;;;;;7.03;6.35;;;;;;;-146.61;100.00;58846.50;6137078;22;20005;-82
2021/07/27 12:14:51;;;;;;;6.90;6.13;;;;;;;-146.61;100.00;58846.50;6103747;22;20012;-83
2021/07/27 12:17:28;;;;;;;7.97;7.22;;;;;;;-146.61;100.00;58846.50;6092574;22;20026;-87
2021/07/27 12:20:16;;;;;;;7.38;6.78;;;;;;;-146.61;100.00;58846.50;6130210;22;20018;-84
2021/07/27 12:23:02;;;;;;;10.07;6.22;;;;;;;-146.61;100.00;58846.50;6098690;23;20013;-85
2021/07/27 12:25:34;;;;;;;7.53;6.85;;;;;;;-146.61;100.00;58846.50;6088570;23;20045;-87
2021/07/27 12:28:00;;;;;;;7.22;6.53;;;;;;;-146.61;100.00;58846.50;6090042;23;20030;-85
2021/07/27 12:30:42;;;;;;;7.22;6.28;;;;;;;-146.61;100.00;58846.50;6082151;23;20051;-84
2021/07/27 12:33:12;;;;;;;8.77;6.13;;;;;;;-146.61;100.00;58846.50;6093538;23;20026;-84
2021/07/27 12:38:40;;;;;;;6.57;5.97;;;;;;;-146.61;100.00;58846.50;6103219;22;20002;-86
2021/07/27 12:41:10;;;;;;;6.07;5.53;;;;;;;-146.61;100.00;58846.50;6112854;23;20022;-86
2021/07/27 12:43:36;;;;;;;5.93;5.07;;;;;;;-146.61;100.00;58846.50;6110650;23;20087;-84
2021/07/27 12:46:08;;;;;;;5.90;4.72;;;;;;;-146.61;100.00;58846.50;6093796;23;20049;-88
2021/07/27 12:48:35;;;;;;;;;;;;;;;-146.61;100.00;58846.50;6094659;23;20103;-87